createdAt,value
2018-01-06T00:00:10.941Z,0
2018-01-06T00:01:10.936Z,0
2018-01-06T00:02:10.899Z,0
2018-01-06T00:03:10.856Z,0
2018-01-06T00:04:10.854Z,0
2018-01-06T00:05:10.922Z,0
2018-01-06T00:06:10.881Z,0
2018-01-06T00:07:10.946Z,0
2018-01-06T00:08:10.941Z,0
2018-01-06T00:09:10.917Z,0
2018-01-06T00:10:10.953Z,0
2018-01-06T00:11:10.888Z,0
2018-01-06T00:12:11.042Z,0
2018-01-06T00:13:10.914Z,0
2018-01-06T00:14:10.963Z,0
2018-01-06T00:15:10.888Z,0
2018-01-06T00:16:10.886Z,0
2018-01-06T00:17:10.893Z,0
2018-01-06T00:18:10.892Z,0
2018-01-06T00:19:10.873Z,0
2018-01-06T00:20:10.864Z,0
2018-01-06T00:21:10.952Z,0
2018-01-06T00:22:10.918Z,0
2018-01-06T00:23:10.894Z,0
2018-01-06T00:24:10.952Z,0
2018-01-06T00:25:10.846Z,0
2018-01-06T00:26:10.895Z,0
2018-01-06T00:27:10.958Z,0
2018-01-06T00:28:10.898Z,0
2018-01-06T00:29:10.896Z,0
2018-01-06T00:30:10.893Z,0
2018-01-06T00:31:10.965Z,0
2018-01-06T00:32:10.895Z,0
2018-01-06T00:33:10.971Z,0
2018-01-06T00:34:10.898Z,0
2018-01-06T00:35:10.973Z,0
2018-01-06T00:36:10.901Z,0
2018-01-06T00:37:10.992Z,0
2018-01-06T00:38:10.911Z,0
2018-01-06T00:39:10.869Z,0
2018-01-06T00:40:10.933Z,0
2018-01-06T00:41:10.921Z,0
2018-01-06T00:42:10.956Z,0
2018-01-06T00:43:10.901Z,0
2018-01-06T00:44:10.872Z,0
2018-01-06T00:45:10.859Z,0
2018-01-06T00:46:10.858Z,0
2018-01-06T00:47:10.879Z,0
2018-01-06T00:48:10.929Z,0
2018-01-06T00:49:10.977Z,0
2018-01-06T00:50:10.907Z,0
2018-01-06T00:51:10.979Z,0
2018-01-06T00:52:10.911Z,0
2018-01-06T00:53:10.913Z,0
2018-01-06T00:54:10.977Z,0
2018-01-06T00:55:10.913Z,0
2018-01-06T00:56:10.983Z,0
2018-01-06T00:57:10.915Z,0
2018-01-06T00:58:10.920Z,0
2018-01-06T00:59:10.985Z,0
2018-01-06T01:00:10.913Z,0
2018-01-06T01:01:10.986Z,0
2018-01-06T01:02:10.987Z,0
2018-01-06T01:03:10.914Z,0
2018-01-06T01:04:10.921Z,0
2018-01-06T01:05:10.990Z,0
2018-01-06T01:06:10.990Z,0
2018-01-06T01:07:10.922Z,0
2018-01-06T01:08:10.920Z,0
2018-01-06T01:09:10.898Z,0
2018-01-06T01:10:10.972Z,0
2018-01-06T01:11:10.882Z,0
2018-01-06T01:12:10.954Z,0
2018-01-06T01:13:10.851Z,0
2018-01-06T01:14:10.888Z,0
2018-01-06T01:15:10.887Z,0
2018-01-06T01:16:10.942Z,0
2018-01-06T01:17:10.980Z,0
2018-01-06T01:18:10.975Z,0
2018-01-06T01:19:10.935Z,0
2018-01-06T01:20:10.930Z,0
2018-01-06T01:21:10.996Z,0
2018-01-06T01:22:10.929Z,0
2018-01-06T01:23:10.933Z,0
2018-01-06T01:24:10.998Z,0
2018-01-06T01:25:10.932Z,0
2018-01-06T01:26:10.997Z,0
2018-01-06T01:27:10.933Z,0
2018-01-06T01:28:10.939Z,0
2018-01-06T01:29:10.897Z,0
2018-01-06T01:30:10.986Z,0
2018-01-06T01:31:10.967Z,0
2018-01-06T01:32:10.927Z,0
2018-01-06T01:33:10.882Z,0
2018-01-06T01:34:10.961Z,0
2018-01-06T01:35:10.912Z,0
2018-01-06T01:36:10.975Z,0
2018-01-06T01:37:10.954Z,0
2018-01-06T01:38:10.973Z,0
2018-01-06T01:39:10.938Z,0
2018-01-06T01:40:10.939Z,0
2018-01-06T01:41:10.939Z,0
2018-01-06T01:42:11.009Z,0
2018-01-06T01:43:10.945Z,0
2018-01-06T01:44:10.950Z,0
2018-01-06T01:45:11.011Z,0
2018-01-06T01:46:10.944Z,0
2018-01-06T01:47:11.013Z,0
2018-01-06T01:48:10.943Z,0
2018-01-06T01:49:10.901Z,0
2018-01-06T01:50:10.976Z,0
2018-01-06T01:51:10.888Z,0
2018-01-06T01:52:10.943Z,0
2018-01-06T01:53:10.880Z,0
2018-01-06T01:54:10.973Z,0
2018-01-06T01:55:10.968Z,0
2018-01-06T01:56:10.874Z,0
2018-01-06T01:57:10.945Z,0
2018-01-06T01:58:10.979Z,0
2018-01-06T01:59:10.949Z,0
2018-01-06T02:00:11.024Z,0
2018-01-06T02:01:10.953Z,0
2018-01-06T02:02:11.024Z,0
2018-01-06T02:03:10.957Z,0
2018-01-06T02:04:10.957Z,0
2018-01-06T02:05:10.956Z,0
2018-01-06T02:06:11.024Z,0
2018-01-06T02:07:11.025Z,0
2018-01-06T02:08:10.955Z,0
2018-01-06T02:09:11.030Z,0
2018-01-06T02:10:10.960Z,0
2018-01-06T02:11:11.028Z,0
2018-01-06T02:12:10.966Z,0
2018-01-06T02:13:11.029Z,0
2018-01-06T02:14:10.958Z,0
2018-01-06T02:15:10.962Z,0
2018-01-06T02:16:11.058Z,0
2018-01-06T02:17:11.035Z,0
2018-01-06T02:18:11.053Z,0
2018-01-06T02:19:10.931Z,0
2018-01-06T02:20:10.939Z,0
2018-01-06T02:21:11.017Z,0
2018-01-06T02:22:10.981Z,0
2018-01-06T02:23:10.900Z,0
2018-01-06T02:24:10.972Z,0
2018-01-06T02:25:10.940Z,0
2018-01-06T02:26:10.920Z,0
2018-01-06T02:27:11.026Z,0
2018-01-06T02:28:11.023Z,0
2018-01-06T02:29:10.935Z,0
2018-01-06T02:30:11.030Z,0
2018-01-06T02:31:10.946Z,0
2018-01-06T02:32:11.038Z,0
2018-01-06T02:33:11.030Z,0
2018-01-06T02:34:10.987Z,0
2018-01-06T02:35:11.034Z,0
2018-01-06T02:36:11.032Z,0
2018-01-06T02:37:10.920Z,0
2018-01-06T02:38:10.971Z,0
2018-01-06T02:39:11.029Z,0
2018-01-06T02:40:10.992Z,0
2018-01-06T02:41:11.032Z,0
2018-01-06T02:42:10.975Z,0
2018-01-06T02:43:10.929Z,0
2018-01-06T02:44:10.944Z,0
2018-01-06T02:45:10.944Z,0
2018-01-06T02:46:11.049Z,0
2018-01-06T02:47:11.036Z,0
2018-01-06T02:48:11.015Z,0
2018-01-06T02:49:11.052Z,0
2018-01-06T02:50:10.981Z,0
2018-01-06T02:51:11.057Z,0
2018-01-06T02:52:10.980Z,0
2018-01-06T02:53:11.053Z,0
2018-01-06T02:54:10.984Z,0
2018-01-06T02:55:10.983Z,0
2018-01-06T02:56:11.053Z,0
2018-01-06T02:57:11.056Z,0
2018-01-06T02:58:11.043Z,0
2018-01-06T02:59:11.053Z,0
2018-01-06T03:00:11.088Z,0
2018-01-06T03:01:11.022Z,0
2018-01-06T03:02:11.057Z,0
2018-01-06T03:03:10.994Z,0
2018-01-06T03:04:11.057Z,0
2018-01-06T03:05:11.001Z,0
2018-01-06T03:06:11.066Z,0
2018-01-06T03:07:11.060Z,0
2018-01-06T03:08:10.993Z,0
2018-01-06T03:09:11.063Z,0
2018-01-06T03:10:10.999Z,0
2018-01-06T03:11:11.065Z,0
2018-01-06T03:12:10.991Z,0
2018-01-06T03:13:11.064Z,0
2018-01-06T03:14:10.998Z,0
2018-01-06T03:15:11.074Z,0
2018-01-06T03:16:10.998Z,0
2018-01-06T03:17:11.068Z,0
2018-01-06T03:18:11.006Z,0
2018-01-06T03:19:11.071Z,0
2018-01-06T03:20:11.068Z,0
2018-01-06T03:21:11.004Z,0
2018-01-06T03:22:11.067Z,0
2018-01-06T03:23:11.003Z,0
2018-01-06T03:24:11.078Z,0
2018-01-06T03:25:11.028Z,0
2018-01-06T03:26:11.073Z,0
2018-01-06T03:27:11.072Z,0
2018-01-06T03:28:11.034Z,0
2018-01-06T03:29:11.005Z,0
2018-01-06T03:30:11.009Z,0
2018-01-06T03:31:11.021Z,0
2018-01-06T03:32:11.076Z,0
2018-01-06T03:33:11.016Z,0
2018-01-06T03:34:11.078Z,0
2018-01-06T03:35:11.039Z,0
2018-01-06T03:36:11.011Z,0
2018-01-06T03:37:11.079Z,0
2018-01-06T03:38:11.079Z,0
2018-01-06T03:39:10.962Z,0
2018-01-06T03:40:11.074Z,0
2018-01-06T03:41:10.963Z,0
2018-01-06T03:42:11.068Z,0
2018-01-06T03:43:11.068Z,0
2018-01-06T03:44:11.069Z,0
2018-01-06T03:45:11.050Z,0
2018-01-06T03:46:10.984Z,0
2018-01-06T03:47:11.074Z,0
2018-01-06T03:48:10.970Z,0
2018-01-06T03:49:11.033Z,0
2018-01-06T03:50:11.040Z,0
2018-01-06T03:51:10.982Z,0
2018-01-06T03:52:11.051Z,0
2018-01-06T03:53:11.020Z,0
2018-01-06T03:54:11.046Z,0
2018-01-06T03:55:11.078Z,0
2018-01-06T03:56:11.017Z,0
2018-01-06T03:57:11.044Z,0
2018-01-06T03:58:11.022Z,0
2018-01-06T03:59:11.092Z,0
2018-01-06T04:00:11.025Z,0
2018-01-06T04:01:11.028Z,0
2018-01-06T04:02:11.093Z,0
2018-01-06T04:03:11.048Z,0
2018-01-06T04:04:11.095Z,0
2018-01-06T04:05:11.031Z,0
2018-01-06T04:06:11.100Z,0
2018-01-06T04:07:11.029Z,0
2018-01-06T04:08:11.097Z,0
2018-01-06T04:09:11.046Z,0
2018-01-06T04:10:11.084Z,0
2018-01-06T04:11:11.051Z,0
2018-01-06T04:12:11.001Z,0
2018-01-06T04:13:11.051Z,0
2018-01-06T04:14:11.055Z,0
2018-01-06T04:15:11.089Z,0
2018-01-06T04:16:11.039Z,0
2018-01-06T04:17:11.088Z,0
2018-01-06T04:18:11.092Z,0
2018-01-06T04:19:11.090Z,0
2018-01-06T04:20:11.098Z,0
2018-01-06T04:21:11.041Z,0
2018-01-06T04:22:11.025Z,0
2018-01-06T04:23:11.059Z,0
2018-01-06T04:24:10.969Z,0
2018-01-06T04:25:11.070Z,0
2018-01-06T04:26:11.078Z,0
2018-01-06T04:27:11.103Z,0
2018-01-06T04:28:11.040Z,0
2018-01-06T04:29:10.979Z,0
2018-01-06T04:30:11.058Z,0
2018-01-06T04:31:10.998Z,0
2018-01-06T04:32:11.068Z,0
2018-01-06T04:33:11.001Z,0
2018-01-06T04:34:11.066Z,0
2018-01-06T04:35:11.010Z,0
2018-01-06T04:36:11.003Z,0
2018-01-06T04:37:11.013Z,0
2018-01-06T04:38:11.011Z,0
2018-01-06T04:39:10.977Z,0
2018-01-06T04:40:11.049Z,0
2018-01-06T04:41:11.116Z,0
2018-01-06T04:42:11.051Z,0
2018-01-06T04:43:11.054Z,0
2018-01-06T04:44:11.121Z,0
2018-01-06T04:45:11.052Z,0
2018-01-06T04:46:11.121Z,0
2018-01-06T04:47:11.065Z,0
2018-01-06T04:48:11.123Z,0
2018-01-06T04:49:11.056Z,0
2018-01-06T04:50:11.122Z,0
2018-01-06T04:51:11.008Z,0
2018-01-06T04:52:11.051Z,0
2018-01-06T04:53:11.049Z,0
2018-01-06T04:54:11.148Z,0
2018-01-06T04:55:11.059Z,0
2018-01-06T04:56:11.127Z,0
2018-01-06T04:57:11.059Z,0
2018-01-06T04:58:11.128Z,0
2018-01-06T04:59:11.059Z,0
2018-01-06T05:00:11.136Z,0
2018-01-06T05:01:11.191Z,0
2018-01-06T05:02:11.132Z,0
2018-01-06T05:03:11.136Z,0
2018-01-06T05:04:11.070Z,0
2018-01-06T05:05:11.063Z,0
2018-01-06T05:06:11.129Z,0
2018-01-06T05:07:11.065Z,0
2018-01-06T05:08:11.067Z,0
2018-01-06T05:09:11.072Z,0
2018-01-06T05:10:11.089Z,0
2018-01-06T05:11:10.994Z,0
2018-01-06T05:12:11.100Z,0
2018-01-06T05:13:11.122Z,0
2018-01-06T05:14:11.035Z,0
2018-01-06T05:15:11.026Z,0
2018-01-06T05:16:11.043Z,0
2018-01-06T05:17:11.130Z,0
2018-01-06T05:18:11.065Z,0
2018-01-06T05:19:11.090Z,0
2018-01-06T05:20:11.075Z,0
2018-01-06T05:21:11.139Z,0
2018-01-06T05:22:11.078Z,0
2018-01-06T05:23:11.151Z,0
2018-01-06T05:24:11.077Z,0
2018-01-06T05:25:11.143Z,0
2018-01-06T05:26:11.145Z,0
2018-01-06T05:27:11.084Z,0
2018-01-06T05:28:11.145Z,0
2018-01-06T05:29:11.080Z,0
2018-01-06T05:30:11.069Z,0
2018-01-06T05:31:11.111Z,0
2018-01-06T05:32:11.101Z,0
2018-01-06T05:33:11.020Z,0
2018-01-06T05:34:11.096Z,0
2018-01-06T05:35:11.109Z,0
2018-01-06T05:36:11.132Z,0
2018-01-06T05:37:11.132Z,0
2018-01-06T05:38:11.105Z,0
2018-01-06T05:39:11.049Z,0
2018-01-06T05:40:11.153Z,0
2018-01-06T05:41:11.089Z,0
2018-01-06T05:42:11.089Z,0
2018-01-06T05:43:11.156Z,0
2018-01-06T05:44:11.090Z,0
2018-01-06T05:45:11.091Z,0
2018-01-06T05:46:11.170Z,0
2018-01-06T05:47:11.091Z,0
2018-01-06T05:48:11.163Z,0
2018-01-06T05:49:11.091Z,0
2018-01-06T05:50:11.181Z,0
2018-01-06T05:51:11.159Z,0
2018-01-06T05:52:11.116Z,0
2018-01-06T05:53:11.092Z,0
2018-01-06T05:54:11.160Z,0
2018-01-06T05:55:11.094Z,0
2018-01-06T05:56:11.172Z,0
2018-01-06T05:57:11.090Z,0
2018-01-06T05:58:11.101Z,0
2018-01-06T05:59:11.161Z,0
2018-01-06T06:00:10.977Z,0
2018-01-06T06:01:11.097Z,0
2018-01-06T06:02:11.103Z,0
2018-01-06T06:03:10.983Z,0
2018-01-06T06:04:11.070Z,0
2018-01-06T06:05:11.076Z,0
2018-01-06T06:06:11.094Z,0
2018-01-06T06:07:10.987Z,0
2018-01-06T06:08:11.049Z,0
2018-01-06T06:09:11.095Z,0
2018-01-06T06:10:11.117Z,0
2018-01-06T06:11:11.054Z,0
2018-01-06T06:12:11.152Z,0
2018-01-06T06:13:11.028Z,0
2018-01-06T06:14:11.026Z,0
2018-01-06T06:15:11.030Z,0
2018-01-06T06:16:11.099Z,0
2018-01-06T06:17:11.030Z,0
2018-01-06T06:18:11.136Z,0
2018-01-06T06:19:11.103Z,0
2018-01-06T06:20:11.109Z,0
2018-01-06T06:21:11.175Z,0
2018-01-06T06:22:11.107Z,0
2018-01-06T06:23:11.110Z,0
2018-01-06T06:24:11.180Z,0
2018-01-06T06:25:11.111Z,0
2018-01-06T06:26:11.113Z,0
2018-01-06T06:27:11.180Z,0
2018-01-06T06:28:11.116Z,0
2018-01-06T06:29:11.181Z,0
2018-01-06T06:30:11.156Z,0
2018-01-06T06:31:11.114Z,0
2018-01-06T06:32:11.190Z,0
2018-01-06T06:33:11.183Z,0
2018-01-06T06:34:11.121Z,0
2018-01-06T06:35:11.188Z,0
2018-01-06T06:36:11.186Z,0
2018-01-06T06:37:11.217Z,0
2018-01-06T06:38:11.190Z,0
2018-01-06T06:39:11.121Z,0
2018-01-06T06:40:11.123Z,0
2018-01-06T06:41:11.187Z,0
2018-01-06T06:42:11.189Z,0
2018-01-06T06:43:11.122Z,0
2018-01-06T06:44:11.191Z,0
2018-01-06T06:45:11.157Z,0
2018-01-06T06:46:11.130Z,0
2018-01-06T06:47:11.190Z,0
2018-01-06T06:48:11.126Z,0
2018-01-06T06:49:11.191Z,0
2018-01-06T06:50:11.124Z,0
2018-01-06T06:51:11.195Z,0
2018-01-06T06:52:11.131Z,0
2018-01-06T06:53:11.129Z,0
2018-01-06T06:54:11.195Z,0
2018-01-06T06:55:11.135Z,0
2018-01-06T06:56:11.200Z,0
2018-01-06T06:57:11.136Z,0
2018-01-06T06:58:11.202Z,0
2018-01-06T06:59:11.201Z,0
2018-01-06T07:00:11.133Z,0
2018-01-06T07:01:11.200Z,0
2018-01-06T07:02:11.132Z,0
2018-01-06T07:03:11.200Z,0
2018-01-06T07:04:11.203Z,0
2018-01-06T07:05:11.139Z,0
2018-01-06T07:06:11.203Z,0
2018-01-06T07:07:11.135Z,0
2018-01-06T07:08:11.208Z,0
2018-01-06T07:09:11.135Z,0
2018-01-06T07:10:11.208Z,0
2018-01-06T07:11:11.211Z,0
2018-01-06T07:12:11.146Z,0
2018-01-06T07:13:11.212Z,0
2018-01-06T07:14:11.167Z,0
2018-01-06T07:15:11.098Z,0
2018-01-06T07:16:11.145Z,0
2018-01-06T07:17:11.208Z,0
2018-01-06T07:18:11.145Z,0
2018-01-06T07:19:11.214Z,0
2018-01-06T07:20:11.167Z,0
2018-01-06T07:21:11.200Z,0
2018-01-06T07:22:11.105Z,0
2018-01-06T07:23:11.196Z,0
2018-01-06T07:24:11.124Z,0
2018-01-06T07:25:11.173Z,0
2018-01-06T07:26:11.147Z,0
2018-01-06T07:27:11.089Z,0
2018-01-06T07:28:11.165Z,0
2018-01-06T07:29:11.075Z,0
2018-01-06T07:30:11.187Z,0
2018-01-06T07:31:11.204Z,0
2018-01-06T07:32:11.185Z,0
2018-01-06T07:33:11.167Z,0
2018-01-06T07:34:11.185Z,0
2018-01-06T07:35:11.188Z,0
2018-01-06T07:36:11.206Z,0
2018-01-06T07:37:11.122Z,0
2018-01-06T07:38:11.195Z,0
2018-01-06T07:39:11.213Z,0
2018-01-06T07:40:11.082Z,0
2018-01-06T07:41:11.168Z,0
2018-01-06T07:42:11.223Z,0
2018-01-06T07:43:11.137Z,0
2018-01-06T07:44:11.124Z,0
2018-01-06T07:45:11.153Z,0
2018-01-06T07:46:11.131Z,0
2018-01-06T07:47:11.159Z,0
2018-01-06T07:48:11.162Z,0
2018-01-06T07:49:11.154Z,0
2018-01-06T07:50:11.169Z,0
2018-01-06T07:51:11.084Z,0
2018-01-06T07:52:11.137Z,0
2018-01-06T07:53:11.160Z,0
2018-01-06T07:54:11.140Z,0
2018-01-06T07:55:11.200Z,0
2018-01-06T07:56:11.194Z,0
2018-01-06T07:57:11.138Z,0
2018-01-06T07:58:11.196Z,0
2018-01-06T07:59:11.125Z,0
2018-01-06T08:00:11.160Z,0
2018-01-06T08:01:11.127Z,0
2018-01-06T08:02:11.219Z,0
2018-01-06T08:03:11.224Z,0
2018-01-06T08:04:11.220Z,0
2018-01-06T08:05:11.127Z,0
2018-01-06T08:06:11.198Z,0
2018-01-06T08:07:11.189Z,0
2018-01-06T08:08:11.189Z,0
2018-01-06T08:09:11.222Z,0
2018-01-06T08:10:11.242Z,0
2018-01-06T08:11:11.172Z,0
2018-01-06T08:12:11.245Z,0
2018-01-06T08:13:11.175Z,230
2018-01-06T08:14:11.302Z,236
2018-01-06T08:15:11.177Z,241
2018-01-06T08:16:11.285Z,258
2018-01-06T08:17:11.251Z,270
2018-01-06T08:18:11.179Z,281
2018-01-06T08:19:11.249Z,298
2018-01-06T08:20:11.242Z,309
2018-01-06T08:21:11.216Z,326
2018-01-06T08:22:11.233Z,337
2018-01-06T08:23:11.186Z,343
2018-01-06T08:24:11.206Z,343
2018-01-06T08:25:11.159Z,348
2018-01-06T08:26:11.228Z,360
2018-01-06T08:27:11.156Z,371
2018-01-06T08:28:11.156Z,382
2018-01-06T08:29:11.190Z,399
2018-01-06T08:30:11.188Z,399
2018-01-06T08:31:11.342Z,399
2018-01-06T08:32:11.260Z,405
2018-01-06T08:33:11.189Z,399
2018-01-06T08:34:11.189Z,399
2018-01-06T08:35:11.257Z,393
2018-01-06T08:36:11.195Z,388
2018-01-06T08:37:11.259Z,382
2018-01-06T08:38:11.264Z,376
2018-01-06T08:39:11.202Z,371
2018-01-06T08:40:11.190Z,376
2018-01-06T08:41:11.206Z,399
2018-01-06T08:42:11.150Z,421
2018-01-06T08:43:11.250Z,466
2018-01-06T08:44:11.254Z,472
2018-01-06T08:45:11.167Z,540
2018-01-06T08:46:11.230Z,573
2018-01-06T08:47:11.232Z,573
2018-01-06T08:48:11.258Z,568
2018-01-06T08:49:11.233Z,568
2018-01-06T08:50:11.196Z,562
2018-01-06T08:51:11.192Z,556
2018-01-06T08:52:11.271Z,585
2018-01-06T08:53:11.199Z,635
2018-01-06T08:54:11.276Z,675
2018-01-06T08:55:11.200Z,680
2018-01-06T08:56:11.204Z,697
2018-01-06T08:57:11.204Z,680
2018-01-06T08:58:11.270Z,646
2018-01-06T08:59:11.199Z,663
2018-01-06T09:00:11.231Z,568
2018-01-06T09:01:11.197Z,675
2018-01-06T09:02:11.142Z,736
2018-01-06T09:03:11.229Z,720
2018-01-06T09:04:11.197Z,686
2018-01-06T09:05:11.220Z,793
2018-01-06T09:06:11.143Z,933
2018-01-06T09:07:11.131Z,1018
2018-01-06T09:08:11.255Z,1029
2018-01-06T09:09:11.129Z,1023
2018-01-06T09:10:11.267Z,1018
2018-01-06T09:11:11.217Z,984
2018-01-06T09:12:11.189Z,978
2018-01-06T09:13:11.203Z,945
2018-01-06T09:14:11.268Z,871
2018-01-06T09:15:11.240Z,911
2018-01-06T09:16:11.184Z,922
2018-01-06T09:17:11.158Z,877
2018-01-06T09:18:11.159Z,888
2018-01-06T09:19:11.283Z,855
2018-01-06T09:20:11.194Z,855
2018-01-06T09:21:11.155Z,871
2018-01-06T09:22:11.263Z,900
2018-01-06T09:23:11.210Z,911
2018-01-06T09:24:11.223Z,956
2018-01-06T09:25:11.173Z,1012
2018-01-06T09:26:11.192Z,1057
2018-01-06T09:27:11.236Z,1040
2018-01-06T09:28:11.213Z,995
2018-01-06T09:29:11.244Z,956
2018-01-06T09:30:11.320Z,973
2018-01-06T09:31:11.169Z,939
2018-01-06T09:32:11.290Z,973
2018-01-06T09:33:11.225Z,984
2018-01-06T09:34:11.293Z,973
2018-01-06T09:35:11.246Z,905
2018-01-06T09:36:11.293Z,843
2018-01-06T09:37:11.222Z,849
2018-01-06T09:38:11.296Z,855
2018-01-06T09:39:11.233Z,883
2018-01-06T09:40:11.297Z,900
2018-01-06T09:41:11.226Z,922
2018-01-06T09:42:11.297Z,945
2018-01-06T09:43:11.226Z,945
2018-01-06T09:44:11.297Z,894
2018-01-06T09:45:11.226Z,866
2018-01-06T09:46:11.227Z,855
2018-01-06T09:47:11.298Z,849
2018-01-06T09:48:11.300Z,832
2018-01-06T09:49:11.233Z,810
2018-01-06T09:50:11.233Z,781
2018-01-06T09:51:11.304Z,776
2018-01-06T09:52:11.304Z,765
2018-01-06T09:53:11.232Z,753
2018-01-06T09:54:11.306Z,748
2018-01-06T09:55:11.239Z,720
2018-01-06T09:56:11.323Z,697
2018-01-06T09:57:11.235Z,669
2018-01-06T09:58:11.306Z,652
2018-01-06T10:00:11.274Z,613
2018-01-06T10:01:11.295Z,601
2018-01-06T10:02:11.241Z,596
2018-01-06T10:03:11.260Z,596
2018-01-06T10:04:11.297Z,607
2018-01-06T10:05:11.256Z,613
2018-01-06T10:06:11.327Z,624
2018-01-06T10:07:11.199Z,630
2018-01-06T10:08:11.313Z,624
2018-01-06T10:09:11.215Z,624
2018-01-06T10:10:11.243Z,618
2018-01-06T10:11:11.317Z,624
2018-01-06T10:12:11.244Z,630
2018-01-06T10:13:11.316Z,630
2018-01-06T10:14:11.243Z,635
2018-01-06T10:15:11.318Z,630
2018-01-06T10:16:11.315Z,624
2018-01-06T10:17:11.246Z,618
2018-01-06T10:18:11.252Z,613
2018-01-06T10:19:11.318Z,624
2018-01-06T10:20:11.278Z,630
2018-01-06T10:21:11.322Z,646
2018-01-06T10:22:11.254Z,658
2018-01-06T10:23:11.321Z,669
2018-01-06T10:24:11.258Z,686
2018-01-06T10:25:11.324Z,708
2018-01-06T10:26:11.261Z,725
2018-01-06T10:27:11.327Z,748
2018-01-06T10:28:11.387Z,765
2018-01-06T10:29:11.327Z,787
2018-01-06T10:30:11.253Z,798
2018-01-06T10:31:11.328Z,804
2018-01-06T10:32:11.255Z,832
2018-01-06T10:33:11.327Z,849
2018-01-06T10:34:11.258Z,838
2018-01-06T10:35:11.337Z,843
2018-01-06T10:36:11.261Z,849
2018-01-06T10:37:11.331Z,843
2018-01-06T10:38:11.260Z,843
2018-01-06T10:39:11.330Z,900
2018-01-06T10:40:11.298Z,883
2018-01-06T10:41:11.301Z,900
2018-01-06T10:42:11.298Z,922
2018-01-06T10:43:11.233Z,900
2018-01-06T10:44:11.278Z,905
2018-01-06T10:45:11.258Z,810
2018-01-06T10:46:11.322Z,770
2018-01-06T10:47:11.298Z,765
2018-01-06T10:48:11.304Z,776
2018-01-06T10:49:11.278Z,770
2018-01-06T10:50:11.204Z,759
2018-01-06T10:51:11.160Z,748
2018-01-06T10:52:11.284Z,731
2018-01-06T10:53:11.263Z,720
2018-01-06T10:54:11.210Z,708
2018-01-06T10:55:11.162Z,691
2018-01-06T10:56:11.167Z,686
2018-01-06T10:57:11.161Z,691
2018-01-06T10:58:11.159Z,697
2018-01-06T10:59:11.167Z,708
2018-01-06T11:00:11.342Z,731
2018-01-06T11:01:11.272Z,731
2018-01-06T11:02:11.224Z,748
2018-01-06T11:03:11.269Z,765
2018-01-06T11:04:11.347Z,770
2018-01-06T11:05:11.275Z,765
2018-01-06T11:06:11.351Z,787
2018-01-06T11:07:11.276Z,793
2018-01-06T11:08:11.346Z,804
2018-01-06T11:09:11.352Z,826
2018-01-06T11:10:11.284Z,838
2018-01-06T11:11:11.351Z,877
2018-01-06T11:12:11.286Z,900
2018-01-06T11:13:11.353Z,894
2018-01-06T11:14:11.281Z,860
2018-01-06T11:15:11.354Z,871
2018-01-06T11:16:11.281Z,911
2018-01-06T11:17:11.355Z,956
2018-01-06T11:18:11.283Z,984
2018-01-06T11:19:11.356Z,995
2018-01-06T11:20:11.289Z,990
2018-01-06T11:21:11.357Z,984
2018-01-06T11:22:11.287Z,950
2018-01-06T11:23:11.284Z,1057
2018-01-06T11:24:11.360Z,1125
2018-01-06T11:25:11.359Z,1085
2018-01-06T11:26:11.291Z,1035
2018-01-06T11:27:11.360Z,1040
2018-01-06T11:28:11.289Z,939
2018-01-06T11:29:11.362Z,894
2018-01-06T11:30:11.291Z,843
2018-01-06T11:31:11.367Z,821
2018-01-06T11:32:11.296Z,804
2018-01-06T11:33:11.295Z,804
2018-01-06T11:34:11.296Z,793
2018-01-06T11:35:11.364Z,787
2018-01-06T11:36:11.293Z,765
2018-01-06T11:37:11.371Z,736
2018-01-06T11:38:11.294Z,720
2018-01-06T11:39:11.576Z,714
2018-01-06T11:40:11.370Z,697
2018-01-06T11:41:11.365Z,680
2018-01-06T11:42:11.338Z,669
2018-01-06T11:43:11.270Z,675
2018-01-06T11:44:11.358Z,686
2018-01-06T11:45:11.334Z,703
2018-01-06T11:46:11.280Z,725
2018-01-06T11:47:11.339Z,731
2018-01-06T11:48:11.372Z,725
2018-01-06T11:49:11.338Z,731
2018-01-06T11:50:11.322Z,753
2018-01-06T11:51:11.337Z,776
2018-01-06T11:52:11.361Z,776
2018-01-06T11:53:11.257Z,787
2018-01-06T11:54:11.364Z,815
2018-01-06T11:55:11.248Z,860
2018-01-06T11:56:11.238Z,888
2018-01-06T11:57:11.278Z,888
2018-01-06T11:58:11.304Z,871
2018-01-06T11:59:11.281Z,843
2018-01-06T12:00:11.367Z,815
2018-01-06T12:01:11.265Z,815
2018-01-06T12:02:11.327Z,815
2018-01-06T12:03:11.347Z,810
2018-01-06T12:04:11.262Z,810
2018-01-06T12:05:11.372Z,804
2018-01-06T12:06:11.331Z,810
2018-01-06T12:07:11.332Z,810
2018-01-06T12:08:11.289Z,804
2018-01-06T12:09:11.284Z,810
2018-01-06T12:10:11.348Z,798
2018-01-06T12:11:11.371Z,810
2018-01-06T12:12:11.265Z,804
2018-01-06T12:13:11.336Z,793
2018-01-06T12:14:11.354Z,787
2018-01-06T12:15:11.315Z,793
2018-01-06T12:16:11.290Z,804
2018-01-06T12:17:11.252Z,815
2018-01-06T12:18:11.381Z,815
2018-01-06T12:19:11.252Z,815
2018-01-06T12:20:11.398Z,798
2018-01-06T12:21:11.382Z,759
2018-01-06T12:22:11.359Z,736
2018-01-06T12:23:11.276Z,714
2018-01-06T12:24:11.384Z,697
2018-01-06T12:25:11.282Z,680
2018-01-06T12:26:11.389Z,652
2018-01-06T12:27:11.393Z,618
2018-01-06T12:28:11.383Z,590
2018-01-06T12:29:11.360Z,568
2018-01-06T12:30:11.346Z,556
2018-01-06T12:31:11.441Z,551
2018-01-06T12:32:11.327Z,551
2018-01-06T12:33:11.399Z,545
2018-01-06T12:34:11.336Z,545
2018-01-06T12:35:11.329Z,528
2018-01-06T12:36:11.328Z,517
2018-01-06T12:37:11.403Z,511
2018-01-06T12:38:11.334Z,511
2018-01-06T12:39:11.404Z,506
2018-01-06T12:40:11.414Z,506
2018-01-06T12:41:11.329Z,489
2018-01-06T12:42:11.408Z,478
2018-01-06T12:43:11.334Z,472
2018-01-06T12:44:11.332Z,472
2018-01-06T12:45:11.407Z,461
2018-01-06T12:46:11.336Z,455
2018-01-06T12:47:11.408Z,455
2018-01-06T12:48:11.360Z,455
2018-01-06T12:49:11.339Z,461
2018-01-06T12:50:11.408Z,472
2018-01-06T12:51:11.339Z,478
2018-01-06T12:52:11.413Z,489
2018-01-06T12:53:11.342Z,506
2018-01-06T12:54:11.411Z,523
2018-01-06T12:55:11.346Z,528
2018-01-06T12:56:11.413Z,511
2018-01-06T12:57:11.347Z,478
2018-01-06T12:58:11.416Z,444
2018-01-06T12:59:11.348Z,416
2018-01-06T13:00:11.344Z,393
2018-01-06T13:01:11.278Z,382
2018-01-06T13:02:11.303Z,388
2018-01-06T13:03:11.399Z,405
2018-01-06T13:04:11.277Z,416
2018-01-06T13:05:11.306Z,410
2018-01-06T13:06:11.322Z,393
2018-01-06T13:07:11.309Z,382
2018-01-06T13:08:11.348Z,376
2018-01-06T13:09:11.330Z,376
2018-01-06T13:10:11.371Z,376
2018-01-06T13:11:11.353Z,388
2018-01-06T13:12:11.355Z,388
2018-01-06T13:13:11.359Z,388
2018-01-06T13:14:11.480Z,376
2018-01-06T13:15:11.426Z,360
2018-01-06T13:16:11.364Z,343
2018-01-06T13:17:11.437Z,331
2018-01-06T13:18:11.366Z,331
2018-01-06T13:19:11.430Z,320
2018-01-06T13:20:11.363Z,315
2018-01-06T13:21:11.290Z,309
2018-01-06T13:22:11.331Z,309
2018-01-06T13:23:11.333Z,315
2018-01-06T13:24:11.329Z,320
2018-01-06T13:25:11.355Z,326
2018-01-06T13:26:11.415Z,331
2018-01-06T13:27:11.335Z,337
2018-01-06T13:28:11.433Z,331
2018-01-06T13:29:11.434Z,337
2018-01-06T13:30:11.435Z,337
2018-01-06T13:31:11.366Z,343
2018-01-06T13:32:11.438Z,343
2018-01-06T13:33:11.391Z,348
2018-01-06T13:34:11.362Z,354
2018-01-06T13:35:11.438Z,360
2018-01-06T13:36:11.371Z,371
2018-01-06T13:37:11.441Z,382
2018-01-06T13:38:11.460Z,388
2018-01-06T13:39:11.442Z,371
2018-01-06T13:40:11.372Z,365
2018-01-06T13:41:11.367Z,360
2018-01-06T13:42:11.347Z,354
2018-01-06T13:43:11.429Z,348
2018-01-06T13:44:11.440Z,348
2018-01-06T13:45:11.376Z,348
2018-01-06T13:46:11.388Z,348
2018-01-06T13:47:11.409Z,348
2018-01-06T13:48:11.348Z,343
2018-01-06T13:49:11.435Z,337
2018-01-06T13:50:11.414Z,331
2018-01-06T13:51:11.331Z,326
2018-01-06T13:52:11.396Z,326
2018-01-06T13:53:11.317Z,309
2018-01-06T13:54:11.316Z,298
2018-01-06T13:55:11.308Z,292
2018-01-06T13:56:11.406Z,286
2018-01-06T13:57:11.412Z,286
2018-01-06T13:58:11.412Z,286
2018-01-06T13:59:11.360Z,281
2018-01-06T14:00:11.399Z,281
2018-01-06T14:01:11.387Z,275
2018-01-06T14:02:11.327Z,270
2018-01-06T14:03:11.316Z,264
2018-01-06T14:04:11.434Z,264
2018-01-06T14:05:11.326Z,258
2018-01-06T14:06:11.345Z,258
2018-01-06T14:07:11.329Z,258
2018-01-06T14:08:11.424Z,253
2018-01-06T14:09:11.413Z,253
2018-01-06T14:10:11.385Z,253
2018-01-06T14:11:11.462Z,247
2018-01-06T14:12:11.395Z,247
2018-01-06T14:13:11.461Z,241
2018-01-06T14:14:11.391Z,241
2018-01-06T14:15:11.464Z,236
2018-01-06T14:16:11.395Z,236
2018-01-06T14:17:11.392Z,230
2018-01-06T14:18:11.468Z,225
2018-01-06T14:19:11.396Z,225
2018-01-06T14:20:11.464Z,225